KABR

Aberdeen Regional Airport

Aberdeen, South Dakota, USA
KABR 182324Z 1900/1924 VRB05KT P6SM OVC090 FM190800 01010KT P6SM OVC015 FM191700 36009KT P6SM OVC050
Issued Valid From Valid To
Nov-18 @ 23:24 UTC
(2 hours ago)
Nov-19 @ 00:00 UTC
(59 minutes ago)
Nov-20 @ 00:00 UTC
(in 23 hours)
Nov-19 @ 00:00 to Nov-19 @ 08:00
KABR 182324Z 1900/1924 VRB05KT P6SM OVC090
Wind Visibility Clouds
Variable at 5 knots Greater than 6 miles
  • Overcast at 9,000' AGL
From Nov-19 @ 08:00 to Nov-19 @ 17:00
FM190800 01010KT P6SM OVC015
Wind Visibility Clouds
10° at 10 knots Greater than 6 miles
  • Overcast at 1,500' AGL
From Nov-19 @ 17:00 to Nov-20 @ 00:00
FM191700 36009KT P6SM OVC050
Wind Visibility Clouds
360° at 9 knots Greater than 6 miles
  • Overcast at 5,000' AGL
KABR 182324Z 1900/1924 VRB05KT P6SM OVC090 FM190800 01010KT P6SM OVC015 FM191700 36009KT P6SM OVC050
Issued Nov-18 @ 23:24 UTC
(2 hours ago)
Valid From Nov-19 @ 00:00 UTC
(59 minutes ago)
Valid To Nov-20 @ 00:00 UTC
(in 23 hours)
Nov-19 @ 00:00 - Nov-19 @ 08:00
Wind Visibility
Variable at 5 knots Greater than 6 miles
Clouds
  • Overcast at 9,000' AGL
From Nov-19 @ 08:00 - Nov-19 @ 17:00
Wind Visibility
10° at 10 knots Greater than 6 miles
Clouds
  • Overcast at 1,500' AGL
From Nov-19 @ 17:00 - Nov-20 @ 00:00
Wind Visibility
360° at 9 knots Greater than 6 miles
Clouds
  • Overcast at 5,000' AGL